아침 6시20분KakaoTalk_20190605_212220615.jpg 견과류오이샐러드 바나나요거트 리코타치즈 토마토소스홀그레인머스타드닭가슴살버터볶음 고구마340g


점심 11시50분KakaoTalk_20190605_212216290.jpg 찰밥300g 파프리카닭가슴살볶음 배추김치 고르곤졸라치즈40g 땅콩버터25g


운동전 15시20분 - 아메리카노1잔

운동중 BCAA1스쿱

운동후 바나나1개


저녁 19시20분KakaoTalk_20190605_212215196.jpg귀리밥 260g 닭가슴살 쌈채소 무생채무침 브로콜리 삶은호박 오이무침 도라지나물 가지무침 간장


총 칼로리 3100 탄수425 단백질187 지방80


오늘은 근무쉬는라 집에서 맛있게 잘 챙겨먹고 운동갔내요 ㅎㅎ... 특히 점심에 닭가슴살에 파프리카 넣고 소금과후추간만했는대도 매우 맛있고 식감도 되게 좋아서 아주 좋더라구요 ㅋㅅㅋ... 파프리카의 단맛과 닭가슴살 담백한조합이 정말 환상적이였어요!! 특히 저 고르곤졸라치즈랑 같이 먹으니 매우 맛있내요 ㅎㅎ... 내일과모래는 연속2일근무내요 ㅎㅎ... 사실 오늘 쉬는대신 내일 일해야하는거죠... ㅋ...ㅋ;; 내일과모래는 식단 클린하게 유지하면서 잘 챙겨먹겠습니다~

번호 제목 글쓴이 날짜 조회 수
공지 스폰서쉽 관련 정책 공지 (19년 5월 20일자) 몬짐레이디 2019.05.21 2511
62838 다이어트 정체기... [6] Buuuulk 2019.07.09 302
62837 단백질을 하루에 몇 g 먹어야 할까요? [11] temporary 2019.07.09 460
62836 감량중인데 시리얼먹어도될까요? [7] file 뜨또1 2019.07.09 292
62835 토마토 개수 [5] 제프송 2019.07.09 228
62834 7월 8일 월요일 영양일지(애슐리) [4] file makimakima 2019.07.08 211
62833 고수님들 다이어트 식단 확인부탁드려요! [9] 미래형몸짱 2019.07.08 247
62832 다이어트 복근 바디프로필... [5] 테드찬 2019.07.08 282
62831 벌크업에 고기는 필수? [9] 두부조림 2019.07.08 386
62830 오랜만에 다시 식단조절하려고 하는데요 [5] Mdew2 2019.07.08 186
62829 식물성 단백질 보충제 질문드립니다.. [5] 윤성민윤성민 2019.07.08 214
62828 대회 5일 남았는데 식단질문입니다 [4] 탈출23 2019.07.08 220
62827 대회후부종 [5] 배륵 2019.07.08 218
62826 닭가슴살 섭취량 질문드립니다~ [6] 상병시인1101 2019.07.08 320
62825 다이어트 식단 피드백좀 부탁드리겠습니다 [6] 2019.07.08 250
62824 7월 7일 일요일 영양일지 [2] file makimakima 2019.07.07 234
62823 단백질 양 질문이요 [6] 큐큐큐큐큐 2019.07.07 265
62822 체지방감소를 목표로 하는중인데 슬럼프가 온거같네요 [6] 헬린이넘버7 2019.07.07 346
62821 운동처음시작하는데 궁금한것이 있습니다. [5] 구공룡 2019.07.07 229
62820 헬스 식단 궁금합니다. (간략한 글) [6] 헬방관 2019.07.07 325
62819 다이어트질문 [6] 신전떡 2019.07.07 213

커뮤니티 답변 회원 랭킹 TOP 10

  • 1 Thor_ 817 pt
  • 2 김총경 645 pt
  • 3 아들이야너 632 pt
  • 4 Pizza 532 pt
  • 5 151 512 pt
  • 6 크나큰 385 pt
  • 7 makimakima 152 pt
  • 8 superhotdog 138 pt
  • 9 커팅러 127 pt
  • 10 헬스장갈렙 114 pt

MONSTERZYM

ABOUT US

FAMILY

BODYBUILDING SCHOOL